createdAt,value
2017-03-21T00:00:13.958Z,1011.3
2017-03-21T00:00:54.591Z,1011.28
2017-03-21T00:01:35.279Z,1011.3
2017-03-21T00:02:15.920Z,1011.29
2017-03-21T00:02:56.555Z,1011.26
2017-03-21T00:03:37.179Z,1011.35
2017-03-21T00:04:17.828Z,1011.3
2017-03-21T00:04:58.476Z,1011.28
2017-03-21T00:05:39.172Z,1011.27
2017-03-21T00:06:19.807Z,1011.28
2017-03-21T00:07:00.441Z,1011.27
2017-03-21T00:07:41.082Z,1011.3
2017-03-21T00:08:21.721Z,1011.32
2017-03-21T00:09:02.363Z,1011.29
2017-03-21T00:09:43.023Z,1011.27
2017-03-21T00:10:23.656Z,1011.26
2017-03-21T00:11:04.292Z,1011.26
2017-03-21T00:11:44.938Z,1011.25
2017-03-21T00:12:25.575Z,1011.23
2017-03-21T00:13:06.237Z,1011.22
2017-03-21T00:13:46.874Z,1011.19
2017-03-21T00:14:27.580Z,1011.2
2017-03-21T00:15:08.251Z,1011.17
2017-03-21T00:15:48.902Z,1011.2
2017-03-21T00:16:29.591Z,1011.18
2017-03-21T00:17:10.342Z,1011.14
2017-03-21T00:17:50.987Z,1011.13
2017-03-21T00:18:31.674Z,1011.13
2017-03-21T00:19:12.301Z,1011.12
2017-03-21T00:19:52.940Z,1011.12
2017-03-21T00:20:33.587Z,1011.13
2017-03-21T00:21:14.227Z,1011.16
2017-03-21T00:21:54.874Z,1011.16
2017-03-21T00:22:35.501Z,1011.09
2017-03-21T00:23:16.146Z,1011.09
2017-03-21T00:23:56.774Z,1011.09
2017-03-21T00:24:37.404Z,1011.09
2017-03-21T00:25:18.549Z,1011.1
2017-03-21T00:25:59.208Z,1011.1
2017-03-21T00:26:39.836Z,1011.12
2017-03-21T00:27:20.469Z,1011.1
2017-03-21T00:28:01.094Z,1011.09
2017-03-21T00:28:41.762Z,1011.07
2017-03-21T00:29:22.377Z,1011.08
2017-03-21T00:30:03.000Z,1011.04
2017-03-21T00:30:43.634Z,1011.07
2017-03-21T00:31:24.283Z,1011.05
2017-03-21T00:32:04.916Z,1011.08
2017-03-21T00:32:45.560Z,1011.04
2017-03-21T00:33:26.197Z,1011.04
2017-03-21T00:34:06.844Z,1011.09
2017-03-21T00:34:47.486Z,1011.04
2017-03-21T00:35:28.202Z,1011.04
2017-03-21T00:36:08.832Z,1011.05
2017-03-21T00:36:49.489Z,1011.05
2017-03-21T00:37:30.122Z,1010.99
2017-03-21T00:38:10.757Z,1011.08
2017-03-21T00:38:51.389Z,1011.02
2017-03-21T00:39:32.111Z,1011.03
2017-03-21T00:40:12.811Z,1011
2017-03-21T00:40:53.440Z,1010.97
2017-03-21T00:41:34.080Z,1010.95
2017-03-21T00:42:14.709Z,1010.96
2017-03-21T00:42:55.353Z,1010.98
2017-03-21T00:43:36.029Z,1010.97
2017-03-21T00:44:16.790Z,1010.87
2017-03-21T00:44:57.421Z,1010.9
2017-03-21T00:45:38.067Z,1010.93
2017-03-21T00:46:18.770Z,1010.97
2017-03-21T00:46:59.465Z,1011
2017-03-21T00:47:40.137Z,1011.04
2017-03-21T00:48:20.811Z,1011.06
2017-03-21T00:49:01.476Z,1011.06
2017-03-21T00:49:42.115Z,1011.05
2017-03-21T00:50:22.747Z,1011.04
2017-03-21T00:51:03.377Z,1011.03
2017-03-21T00:51:44.000Z,1011.01
2017-03-21T00:52:24.620Z,1011.01
2017-03-21T00:53:05.304Z,1010.97
2017-03-21T00:53:45.938Z,1010.97
2017-03-21T00:54:26.609Z,1010.96
2017-03-21T00:55:07.246Z,1010.97
2017-03-21T00:55:47.874Z,1010.98
2017-03-21T00:56:28.516Z,1011
2017-03-21T00:57:09.146Z,1010.99
2017-03-21T00:57:49.770Z,1011.01
2017-03-21T00:58:30.461Z,1011.03
2017-03-21T00:59:11.158Z,1011
2017-03-21T00:59:51.790Z,1011
2017-03-21T01:00:32.529Z,1010.98
2017-03-21T01:01:13.198Z,1010.96
2017-03-21T01:01:53.835Z,1011
2017-03-21T01:02:34.489Z,1010.98
2017-03-21T01:03:15.162Z,1010.96
2017-03-21T01:03:55.792Z,1010.94
2017-03-21T01:04:36.453Z,1010.9
2017-03-21T01:05:17.174Z,1010.9
2017-03-21T01:05:57.812Z,1010.86
2017-03-21T01:06:38.454Z,1010.85
2017-03-21T01:07:19.072Z,1010.86
2017-03-21T01:07:59.705Z,1010.87
2017-03-21T01:08:40.398Z,1010.83
2017-03-21T01:09:21.028Z,1010.83
2017-03-21T01:10:01.664Z,1010.82
2017-03-21T01:10:42.305Z,1010.85
2017-03-21T01:11:22.933Z,1010.82
2017-03-21T01:12:03.563Z,1010.81
2017-03-21T01:12:44.194Z,1010.76
2017-03-21T01:13:24.834Z,1010.8
2017-03-21T01:14:05.462Z,1010.82
2017-03-21T01:14:46.164Z,1010.82
2017-03-21T01:15:26.867Z,1010.89
2017-03-21T01:16:07.500Z,1010.84
2017-03-21T01:16:48.138Z,1010.82
2017-03-21T01:17:28.761Z,1010.81
2017-03-21T01:18:09.405Z,1010.85
2017-03-21T01:18:50.034Z,1010.86
2017-03-21T01:19:30.669Z,1010.86
2017-03-21T01:20:11.304Z,1010.87
2017-03-21T01:20:51.926Z,1010.88
2017-03-21T01:21:32.550Z,1010.87
2017-03-21T01:22:13.179Z,1010.81
2017-03-21T01:22:53.906Z,1010.82
2017-03-21T01:23:34.546Z,1010.79
2017-03-21T01:24:15.173Z,1010.78
2017-03-21T01:24:55.803Z,1010.8
2017-03-21T01:25:36.434Z,1010.78
2017-03-21T01:26:17.053Z,1010.76
2017-03-21T01:26:57.684Z,1010.74
2017-03-21T01:27:38.375Z,1010.75
2017-03-21T01:28:19.014Z,1010.73
2017-03-21T01:28:59.719Z,1010.79
2017-03-21T01:29:40.398Z,1010.77
2017-03-21T01:30:21.019Z,1010.75
2017-03-21T01:31:01.665Z,1010.71
2017-03-21T01:31:42.307Z,1010.74
2017-03-21T01:32:22.929Z,1010.72
2017-03-21T01:33:03.612Z,1010.7
2017-03-21T01:33:44.237Z,1010.67
2017-03-21T01:34:24.872Z,1010.69
2017-03-21T01:35:05.578Z,1010.7
2017-03-21T01:35:46.197Z,1010.69
2017-03-21T01:36:26.831Z,1010.73
2017-03-21T01:37:07.462Z,1010.71
2017-03-21T01:37:48.087Z,1010.71
2017-03-21T01:38:28.718Z,1010.72
2017-03-21T01:39:09.342Z,1010.69
2017-03-21T01:39:50.018Z,1010.66
2017-03-21T01:40:30.636Z,1010.68
2017-03-21T01:41:11.259Z,1010.66
2017-03-21T01:41:51.967Z,1010.68
2017-03-21T01:42:32.620Z,1010.66
2017-03-21T01:43:13.265Z,1010.62
2017-03-21T01:43:53.896Z,1010.63
2017-03-21T01:44:34.531Z,1010.65
2017-03-21T01:45:15.163Z,1010.66
2017-03-21T01:45:55.822Z,1010.64
2017-03-21T01:46:36.465Z,1010.63
2017-03-21T01:47:17.093Z,1010.68
2017-03-21T01:47:57.752Z,1010.65
2017-03-21T01:48:38.382Z,1010.65
2017-03-21T01:49:19.077Z,1010.62
2017-03-21T01:49:59.697Z,1010.65
2017-03-21T01:50:40.330Z,1010.65
2017-03-21T01:51:20.971Z,1010.7
2017-03-21T01:52:01.664Z,1010.69
2017-03-21T01:52:42.306Z,1010.65
2017-03-21T01:53:22.932Z,1010.63
2017-03-21T01:54:03.563Z,1010.63
2017-03-21T01:54:44.202Z,1010.62
2017-03-21T01:55:24.826Z,1010.61
2017-03-21T01:56:05.519Z,1010.65
2017-03-21T01:56:46.155Z,1010.68
2017-03-21T01:57:26.784Z,1010.68
2017-03-21T01:58:07.423Z,1010.7
2017-03-21T01:58:48.048Z,1010.71
2017-03-21T01:59:28.684Z,1010.72
2017-03-21T02:00:09.317Z,1010.74
2017-03-21T02:00:49.946Z,1010.7
2017-03-21T02:01:30.581Z,1010.71
2017-03-21T02:02:11.212Z,1010.72
2017-03-21T02:02:51.906Z,1010.7
2017-03-21T02:03:32.542Z,1010.71
2017-03-21T02:04:13.172Z,1010.69
2017-03-21T02:04:53.793Z,1010.7
2017-03-21T02:05:34.433Z,1010.64
2017-03-21T02:06:15.058Z,1010.63
2017-03-21T02:06:55.713Z,1010.62
2017-03-21T02:07:36.403Z,1010.61
2017-03-21T02:08:17.040Z,1010.59
2017-03-21T02:08:57.674Z,1010.57
2017-03-21T02:09:38.318Z,1010.54
2017-03-21T02:10:18.948Z,1010.56
2017-03-21T02:10:59.583Z,1010.55
2017-03-21T02:11:40.215Z,1010.55
2017-03-21T02:12:20.839Z,1010.55
2017-03-21T02:13:01.463Z,1010.54
2017-03-21T02:13:42.155Z,1010.56
2017-03-21T02:14:22.784Z,1010.53
2017-03-21T02:15:03.412Z,1010.52
2017-03-21T02:15:44.084Z,1010.55
2017-03-21T02:16:24.713Z,1010.56
2017-03-21T02:17:05.337Z,1010.56
2017-03-21T02:17:45.960Z,1010.54
2017-03-21T02:18:26.585Z,1010.58
2017-03-21T02:19:07.233Z,1010.56
2017-03-21T02:19:47.858Z,1010.52
2017-03-21T02:20:28.501Z,1010.52
2017-03-21T02:21:09.195Z,1010.55
2017-03-21T02:21:49.822Z,1010.5
2017-03-21T02:22:30.451Z,1010.5
2017-03-21T02:23:11.108Z,1010.52
2017-03-21T02:23:51.736Z,1010.51
2017-03-21T02:24:32.377Z,1010.51
2017-03-21T02:25:13.004Z,1010.51
2017-03-21T02:25:53.636Z,1010.51
2017-03-21T02:26:34.254Z,1010.58
2017-03-21T02:27:14.877Z,1010.53
2017-03-21T02:27:55.499Z,1010.49
2017-03-21T02:28:36.196Z,1010.53
2017-03-21T02:29:16.833Z,1010.51
2017-03-21T02:29:57.457Z,1010.52
2017-03-21T02:30:38.114Z,1010.49
2017-03-21T02:31:18.746Z,1010.51
2017-03-21T02:31:59.367Z,1010.52
2017-03-21T02:32:40.049Z,1010.47
2017-03-21T02:33:20.668Z,1010.52
2017-03-21T02:34:01.293Z,1010.52
2017-03-21T02:34:41.923Z,1010.49
2017-03-21T02:35:22.559Z,1010.51
2017-03-21T02:36:03.184Z,1010.55
2017-03-21T02:36:43.817Z,1010.57
2017-03-21T02:37:24.455Z,1010.58
2017-03-21T02:38:05.083Z,1010.56
2017-03-21T02:38:45.724Z,1010.59
2017-03-21T02:39:26.342Z,1010.58
2017-03-21T02:40:06.987Z,1010.6
2017-03-21T02:40:47.627Z,1010.58
2017-03-21T02:41:28.249Z,1010.57
2017-03-21T02:42:08.881Z,1010.54
2017-03-21T02:42:49.505Z,1010.51
2017-03-21T02:43:30.244Z,1010.52
2017-03-21T02:44:10.862Z,1010.47
2017-03-21T02:44:51.492Z,1010.53
2017-03-21T02:45:32.149Z,1010.5
2017-03-21T02:46:12.772Z,1010.48
2017-03-21T02:46:53.422Z,1010.51
2017-03-21T02:47:34.063Z,1010.52
2017-03-21T02:48:14.691Z,1010.5
2017-03-21T02:48:55.327Z,1010.48
2017-03-21T02:49:36.027Z,1010.49
2017-03-21T02:50:16.677Z,1010.42
2017-03-21T02:50:57.299Z,1010.41
2017-03-21T02:51:37.952Z,1010.42
2017-03-21T02:52:18.581Z,1010.42
2017-03-21T02:52:59.205Z,1010.42
2017-03-21T02:53:39.935Z,1010.39
2017-03-21T02:54:20.573Z,1010.44
2017-03-21T02:55:01.202Z,1010.43
2017-03-21T02:55:41.835Z,1010.44
2017-03-21T02:56:22.468Z,1010.44
2017-03-21T02:57:03.106Z,1010.48
2017-03-21T02:57:43.766Z,1010.49
2017-03-21T02:58:24.368Z,1010.47
2017-03-21T02:59:04.999Z,1010.43
2017-03-21T02:59:45.663Z,1010.46
2017-03-21T03:00:26.306Z,1010.44
2017-03-21T03:01:06.982Z,1010.46
2017-03-21T03:01:47.632Z,1010.45
2017-03-21T03:02:28.272Z,1010.44
2017-03-21T03:03:08.899Z,1010.41
2017-03-21T03:03:49.551Z,1010.42
2017-03-21T03:04:30.192Z,1010.43
2017-03-21T03:05:10.847Z,1010.48
2017-03-21T03:05:51.472Z,1010.45
2017-03-21T03:06:32.103Z,1010.42
2017-03-21T03:07:12.726Z,1010.41
2017-03-21T03:07:53.351Z,1010.41
2017-03-21T03:08:34.039Z,1010.41
2017-03-21T03:09:14.669Z,1010.44
2017-03-21T03:09:55.324Z,1010.42
2017-03-21T03:10:35.968Z,1010.36
2017-03-21T03:11:16.595Z,1010.34
2017-03-21T03:11:57.223Z,1010.35
2017-03-21T03:12:37.857Z,1010.36
2017-03-21T03:13:18.530Z,1010.34
2017-03-21T03:13:59.167Z,1010.35
2017-03-21T03:14:39.796Z,1010.35
2017-03-21T03:15:20.452Z,1010.34
2017-03-21T03:16:01.066Z,1010.29
2017-03-21T03:16:41.710Z,1010.29
2017-03-21T03:17:22.356Z,1010.28
2017-03-21T03:18:02.988Z,1010.28
2017-03-21T03:18:43.715Z,1010.28
2017-03-21T03:19:24.350Z,1010.32
2017-03-21T03:20:04.981Z,1010.31
2017-03-21T03:20:45.635Z,1010.33
2017-03-21T03:21:26.319Z,1010.29
2017-03-21T03:22:06.943Z,1010.27
2017-03-21T03:22:47.657Z,1010.27
2017-03-21T03:23:28.350Z,1010.24
2017-03-21T03:24:08.982Z,1010.25
2017-03-21T03:24:49.609Z,1010.22
2017-03-21T03:25:30.237Z,1010.22
2017-03-21T03:26:10.963Z,1010.26
2017-03-21T03:26:51.611Z,1010.26
2017-03-21T03:27:32.247Z,1010.23
2017-03-21T03:28:12.967Z,1010.17
2017-03-21T03:28:53.604Z,1010.2
2017-03-21T03:29:34.359Z,1010.22
2017-03-21T03:30:15.001Z,1010.21
2017-03-21T03:30:55.637Z,1010.22
2017-03-21T03:31:36.266Z,1010.19
2017-03-21T03:32:16.900Z,1010.22
2017-03-21T03:32:57.527Z,1010.2
2017-03-21T03:33:38.216Z,1010.15
2017-03-21T03:34:18.932Z,1010.16
2017-03-21T03:34:59.560Z,1010.22
2017-03-21T03:35:40.184Z,1010.23
2017-03-21T03:36:20.872Z,1010.23
2017-03-21T03:37:01.507Z,1010.22
2017-03-21T03:37:42.135Z,1010.24
2017-03-21T03:38:22.815Z,1010.25
2017-03-21T03:39:03.471Z,1010.26
2017-03-21T03:39:44.093Z,1010.3
2017-03-21T03:40:24.735Z,1010.28
2017-03-21T03:41:05.364Z,1010.29
2017-03-21T03:41:46.072Z,1010.3
2017-03-21T03:42:26.692Z,1010.3
2017-03-21T03:43:07.314Z,1010.3
2017-03-21T03:43:48.007Z,1010.3
2017-03-21T03:44:28.644Z,1010.3
2017-03-21T03:45:09.274Z,1010.29
2017-03-21T03:45:49.904Z,1010.29
2017-03-21T03:46:30.529Z,1010.3
2017-03-21T03:47:11.155Z,1010.27
2017-03-21T03:47:51.829Z,1010.28
2017-03-21T03:48:32.541Z,1010.27
2017-03-21T03:49:13.165Z,1010.28
2017-03-21T03:49:53.805Z,1010.24
2017-03-21T03:50:34.483Z,1010.22
2017-03-21T03:51:15.102Z,1010.22
2017-03-21T03:51:55.741Z,1010.22
2017-03-21T03:52:36.457Z,1010.26
2017-03-21T03:53:17.195Z,1010.21
2017-03-21T03:53:57.769Z,1010.25
2017-03-21T03:54:38.401Z,1010.2
2017-03-21T03:55:19.039Z,1010.26
2017-03-21T03:55:59.663Z,1010.27
2017-03-21T03:56:40.426Z,1010.27
2017-03-21T03:57:21.059Z,1010.26
2017-03-21T03:58:01.690Z,1010.24
2017-03-21T03:58:42.405Z,1010.23
2017-03-21T03:59:23.032Z,1010.21
2017-03-21T04:00:03.670Z,1010.23
2017-03-21T04:00:44.324Z,1010.26
2017-03-21T04:01:24.953Z,1010.23
2017-03-21T04:02:05.598Z,1010.18
2017-03-21T04:02:46.260Z,1010.21
2017-03-21T04:03:26.968Z,1010.21
2017-03-21T04:04:07.595Z,1010.23
2017-03-21T04:04:48.324Z,1010.21
2017-03-21T04:05:28.957Z,1010.22
2017-03-21T04:06:09.599Z,1010.19
2017-03-21T04:06:50.247Z,1010.22
2017-03-21T04:07:30.878Z,1010.24
2017-03-21T04:08:11.509Z,1010.22
2017-03-21T04:08:52.134Z,1010.18
2017-03-21T04:09:32.781Z,1010.21
2017-03-21T04:10:13.403Z,1010.19
2017-03-21T04:10:54.064Z,1010.17
2017-03-21T04:11:34.694Z,1010.16
2017-03-21T04:12:15.319Z,1010.22
2017-03-21T04:12:55.998Z,1010.2
2017-03-21T04:13:36.633Z,1010.16
2017-03-21T04:14:17.255Z,1010.2
2017-03-21T04:14:57.889Z,1010.17
2017-03-21T04:15:38.570Z,1010.18
2017-03-21T04:16:19.212Z,1010.15
2017-03-21T04:16:59.871Z,1010.15
2017-03-21T04:17:40.567Z,1010.17
2017-03-21T04:18:21.202Z,1010.21
2017-03-21T04:19:01.849Z,1010.16
2017-03-21T04:19:42.481Z,1010.13
2017-03-21T04:20:23.119Z,1010.16
2017-03-21T04:21:03.832Z,1010.15
2017-03-21T04:21:44.466Z,1010.18
2017-03-21T04:22:25.089Z,1010.19
2017-03-21T04:23:05.713Z,1010.25
2017-03-21T04:23:46.341Z,1010.19
2017-03-21T04:24:26.968Z,1010.13
2017-03-21T04:25:07.594Z,1010.15
2017-03-21T04:25:48.231Z,1010.13
2017-03-21T04:26:28.871Z,1010.12
2017-03-21T04:27:09.564Z,1010.14
2017-03-21T04:27:50.202Z,1010.12
2017-03-21T04:28:30.837Z,1010.1
2017-03-21T04:29:11.542Z,1010.11
2017-03-21T04:29:52.223Z,1010.12
2017-03-21T04:30:32.855Z,1010.13
2017-03-21T04:31:13.478Z,1010.13
2017-03-21T04:31:54.115Z,1010.13
2017-03-21T04:32:34.736Z,1010.12
2017-03-21T04:33:15.368Z,1010.13
2017-03-21T04:33:55.996Z,1010.1
2017-03-21T04:34:36.638Z,1010.11
2017-03-21T04:35:17.364Z,1010.1
2017-03-21T04:35:57.994Z,1010.08
2017-03-21T04:36:38.623Z,1010.12
2017-03-21T04:37:19.249Z,1010.11
2017-03-21T04:37:59.875Z,1010.11
2017-03-21T04:38:40.498Z,1010.16
2017-03-21T04:39:21.132Z,1010.17
2017-03-21T04:40:01.783Z,1010.14
2017-03-21T04:40:42.383Z,1010.16
2017-03-21T04:41:23.016Z,1010.18
2017-03-21T04:42:03.651Z,1010.18
2017-03-21T04:42:44.395Z,1010.17
2017-03-21T04:43:25.026Z,1010.22
2017-03-21T04:44:05.651Z,1010.2
2017-03-21T04:44:46.284Z,1010.24
2017-03-21T04:45:26.916Z,1010.21
2017-03-21T04:46:07.536Z,1010.22
2017-03-21T04:46:48.159Z,1010.24
2017-03-21T04:47:28.786Z,1010.21
2017-03-21T04:48:09.424Z,1010.19
2017-03-21T04:48:50.049Z,1010.16
2017-03-21T04:49:30.675Z,1010.17
2017-03-21T04:50:11.297Z,1010.16
2017-03-21T04:50:51.930Z,1010.17
2017-03-21T04:51:32.557Z,1010.16
2017-03-21T04:52:13.180Z,1010.16
2017-03-21T04:52:53.808Z,1010.2
2017-03-21T04:53:34.444Z,1010.18
2017-03-21T04:54:15.068Z,1010.15
2017-03-21T04:54:55.744Z,1010.22
2017-03-21T04:55:36.369Z,1010.22
2017-03-21T04:56:16.992Z,1010.15
2017-03-21T04:56:57.705Z,1010.19
2017-03-21T04:57:38.336Z,1010.15
2017-03-21T04:58:18.959Z,1010.17
2017-03-21T04:58:59.584Z,1010.2
2017-03-21T04:59:40.279Z,1010.24
2017-03-21T05:00:20.840Z,1010.18
2017-03-21T05:01:01.461Z,1010.2
2017-03-21T05:01:42.096Z,1010.19
2017-03-21T05:02:22.731Z,1010.2
2017-03-21T05:03:03.353Z,1010.21
2017-03-21T05:03:43.998Z,1010.22
2017-03-21T05:04:24.625Z,1010.25
2017-03-21T05:05:05.345Z,1010.2
2017-03-21T05:05:45.968Z,1010.22
2017-03-21T05:06:26.698Z,1010.27
2017-03-21T05:07:07.336Z,1010.29
2017-03-21T05:07:48.023Z,1010.25
2017-03-21T05:08:28.624Z,1010.27
2017-03-21T05:09:09.306Z,1010.21
2017-03-21T05:09:50.004Z,1010.22
2017-03-21T05:10:30.644Z,1010.21
2017-03-21T05:11:11.277Z,1010.23
2017-03-21T05:11:51.908Z,1010.26
2017-03-21T05:12:32.536Z,1010.26
2017-03-21T05:13:13.170Z,1010.31
2017-03-21T05:13:53.787Z,1010.28
2017-03-21T05:14:34.425Z,1010.3
2017-03-21T05:15:15.123Z,1010.25
2017-03-21T05:15:55.744Z,1010.25
2017-03-21T05:16:36.380Z,1010.24
2017-03-21T05:17:17.041Z,1010.24
2017-03-21T05:17:57.661Z,1010.35
2017-03-21T05:18:38.288Z,1010.33
2017-03-21T05:19:18.910Z,1010.34
2017-03-21T05:19:59.542Z,1010.23
2017-03-21T05:20:40.168Z,1010.29
2017-03-21T05:21:20.859Z,1010.25
2017-03-21T05:22:01.489Z,1010.24
2017-03-21T05:22:42.123Z,1010.27
2017-03-21T05:23:22.878Z,1010.22
2017-03-21T05:24:03.497Z,1010.27
2017-03-21T05:24:44.128Z,1010.23
2017-03-21T05:25:24.743Z,1010.25
2017-03-21T05:26:05.371Z,1010.31
2017-03-21T05:26:45.995Z,1010.23
2017-03-21T05:27:26.644Z,1010.28
2017-03-21T05:28:07.267Z,1010.25
2017-03-21T05:28:47.954Z,1010.25
2017-03-21T05:29:28.590Z,1010.2
2017-03-21T05:30:09.211Z,1010.22
2017-03-21T05:30:49.849Z,1010.24
2017-03-21T05:31:30.475Z,1010.24
2017-03-21T05:32:11.107Z,1010.28
2017-03-21T05:32:51.751Z,1010.24
2017-03-21T05:33:32.393Z,1010.24
2017-03-21T05:34:13.040Z,1010.21
2017-03-21T05:34:53.669Z,1010.25
2017-03-21T05:35:34.310Z,1010.29
2017-03-21T05:36:14.934Z,1010.22
2017-03-21T05:36:55.563Z,1010.26
2017-03-21T05:37:36.253Z,1010.26
2017-03-21T05:38:16.895Z,1010.24
2017-03-21T05:38:57.516Z,1010.28
2017-03-21T05:39:38.134Z,1010.27
2017-03-21T05:40:18.779Z,1010.26
2017-03-21T05:40:59.435Z,1010.28
2017-03-21T05:41:40.111Z,1010.33
2017-03-21T05:42:20.756Z,1010.34
2017-03-21T05:43:01.451Z,1010.34
2017-03-21T05:43:42.088Z,1010.29
2017-03-21T05:44:22.712Z,1010.35
2017-03-21T05:45:03.350Z,1010.36
2017-03-21T05:45:43.976Z,1010.36
2017-03-21T05:46:24.611Z,1010.39
2017-03-21T05:47:05.305Z,1010.52
2017-03-21T05:47:45.940Z,1010.33
2017-03-21T05:48:26.574Z,1010.39
2017-03-21T05:49:07.205Z,1010.37
2017-03-21T05:49:47.841Z,1010.3
2017-03-21T05:50:28.471Z,1010.29
2017-03-21T05:51:09.139Z,1010.31
2017-03-21T05:51:49.762Z,1010.29
2017-03-21T05:52:30.432Z,1010.26
2017-03-21T05:53:11.063Z,1010.28
2017-03-21T05:53:51.699Z,1010.27
2017-03-21T05:54:32.321Z,1010.28
2017-03-21T05:55:12.957Z,1010.24
2017-03-21T05:55:53.587Z,1010.22
2017-03-21T05:56:34.202Z,1010.23
2017-03-21T05:57:14.850Z,1010.2
2017-03-21T05:57:55.475Z,1010.25
2017-03-21T05:58:36.109Z,1010.19
2017-03-21T05:59:16.845Z,1010.18
2017-03-21T05:59:57.481Z,1010.19
2017-03-21T06:00:38.110Z,1010.16
2017-03-21T06:01:18.741Z,1010.17
2017-03-21T06:01:59.373Z,1010.21
2017-03-21T06:02:40.035Z,1010.2
2017-03-21T06:03:20.733Z,1010.16
2017-03-21T06:04:01.368Z,1010.21
2017-03-21T06:04:41.991Z,1010.2
2017-03-21T06:05:22.627Z,1010.21
2017-03-21T06:06:03.257Z,1010.19
2017-03-21T06:06:44.004Z,1010.18
2017-03-21T06:07:24.672Z,1010.18
2017-03-21T06:08:05.303Z,1010.19
2017-03-21T06:08:45.931Z,1010.18
2017-03-21T06:09:26.556Z,1010.2
2017-03-21T06:10:07.186Z,1010.21
2017-03-21T06:10:47.880Z,1010.16
2017-03-21T06:11:28.515Z,1010.13
2017-03-21T06:12:09.138Z,1010.21
2017-03-21T06:12:49.767Z,1010.15
2017-03-21T06:13:30.404Z,1010.17
2017-03-21T06:14:11.028Z,1010.13
2017-03-21T06:14:51.653Z,1010.16
2017-03-21T06:15:32.298Z,1010.2
2017-03-21T06:16:12.921Z,1010.18
2017-03-21T06:16:53.634Z,1010.21
2017-03-21T06:17:34.333Z,1010.2
2017-03-21T06:18:14.965Z,1010.16
2017-03-21T06:18:55.598Z,1010.21
2017-03-21T06:19:36.229Z,1010.2
2017-03-21T06:20:16.861Z,1010.2
2017-03-21T06:20:57.585Z,1010.19
2017-03-21T06:21:38.200Z,1010.16
2017-03-21T06:22:18.828Z,1010.23
2017-03-21T06:22:59.466Z,1010.21
2017-03-21T06:23:40.116Z,1010.22
2017-03-21T06:24:20.738Z,1010.26
2017-03-21T06:25:01.442Z,1010.29
2017-03-21T06:25:42.081Z,1010.3
2017-03-21T06:26:22.706Z,1010.32
2017-03-21T06:27:03.366Z,1010.3
2017-03-21T06:27:44.074Z,1010.3
2017-03-21T06:28:24.741Z,1010.35
2017-03-21T06:29:05.409Z,1010.32
2017-03-21T06:29:46.140Z,1010.27
2017-03-21T06:30:26.817Z,1010.31
2017-03-21T06:31:07.440Z,1010.28
2017-03-21T06:31:48.069Z,1010.25
2017-03-21T06:32:28.749Z,1010.28
2017-03-21T06:33:09.377Z,1010.26
2017-03-21T06:33:50.066Z,1010.29
2017-03-21T06:34:30.689Z,1010.29
2017-03-21T06:35:11.327Z,1010.26
2017-03-21T06:35:51.955Z,1010.25
2017-03-21T06:36:32.584Z,1010.28
2017-03-21T06:37:13.223Z,1010.3
2017-03-21T06:37:53.851Z,1010.25
2017-03-21T06:38:34.484Z,1010.23
2017-03-21T06:39:15.105Z,1010.21
2017-03-21T06:39:55.777Z,1010.24
2017-03-21T06:40:36.520Z,1010.21
2017-03-21T06:41:17.165Z,1010.24
2017-03-21T06:41:57.859Z,1010.22
2017-03-21T06:42:38.565Z,1010.22
2017-03-21T06:43:19.197Z,1010.22
2017-03-21T06:43:59.937Z,1010.23
2017-03-21T06:44:40.610Z,1010.22
2017-03-21T06:45:21.245Z,1010.27
2017-03-21T06:46:01.892Z,1010.27
2017-03-21T06:46:42.538Z,1010.21
2017-03-21T06:47:23.252Z,1010.23
2017-03-21T06:48:03.795Z,1010.23
2017-03-21T06:48:44.442Z,1010.29
2017-03-21T06:49:25.060Z,1010.29
2017-03-21T06:50:05.724Z,1010.27
2017-03-21T06:50:46.349Z,1010.29
2017-03-21T06:51:27.002Z,1010.3
2017-03-21T06:52:07.736Z,1010.31
2017-03-21T06:52:48.429Z,1010.33
2017-03-21T06:53:29.063Z,1010.33
2017-03-21T06:54:09.689Z,1010.33
2017-03-21T06:54:50.340Z,1010.33
2017-03-21T06:55:31.058Z,1010.26
2017-03-21T06:56:11.725Z,1010.27
2017-03-21T06:56:52.456Z,1010.28
2017-03-21T06:57:33.117Z,1010.26
2017-03-21T06:58:13.745Z,1010.25
2017-03-21T06:58:54.394Z,1010.27
2017-03-21T06:59:35.042Z,1010.33
2017-03-21T07:00:15.669Z,1010.38
2017-03-21T07:00:56.301Z,1010.45
2017-03-21T07:01:36.935Z,1010.46
2017-03-21T07:02:17.557Z,1010.52
2017-03-21T07:02:58.242Z,1010.49
2017-03-21T07:03:38.878Z,1010.54
2017-03-21T07:04:19.506Z,1010.53
2017-03-21T07:05:00.144Z,1010.57
2017-03-21T07:05:40.772Z,1010.57
2017-03-21T07:06:21.399Z,1010.62
2017-03-21T07:07:02.027Z,1010.63
2017-03-21T07:07:42.734Z,1010.69
2017-03-21T07:08:23.385Z,1010.65
2017-03-21T07:09:04.014Z,1010.64
2017-03-21T07:09:44.740Z,1010.64
2017-03-21T07:10:25.369Z,1010.71
2017-03-21T07:11:06.073Z,1010.65
2017-03-21T07:11:46.701Z,1010.68
2017-03-21T07:12:27.325Z,1010.69
2017-03-21T07:13:07.956Z,1010.65
2017-03-21T07:13:48.589Z,1010.66
2017-03-21T07:14:29.213Z,1010.62
2017-03-21T07:15:09.868Z,1010.57
2017-03-21T07:15:50.488Z,1010.52
2017-03-21T07:16:31.117Z,1010.56
2017-03-21T07:17:11.775Z,1010.55
2017-03-21T07:17:52.407Z,1010.6
2017-03-21T07:18:33.038Z,1010.6
2017-03-21T07:19:13.749Z,1010.61
2017-03-21T07:19:54.401Z,1010.58
2017-03-21T07:20:35.040Z,1010.64
2017-03-21T07:21:15.675Z,1010.67
2017-03-21T07:21:56.375Z,1010.63
2017-03-21T07:22:37.003Z,1010.61
2017-03-21T07:23:17.712Z,1010.63
2017-03-21T07:23:58.346Z,1010.6
2017-03-21T07:24:38.975Z,1010.6
2017-03-21T07:25:19.604Z,1010.61
2017-03-21T07:26:00.227Z,1010.63
2017-03-21T07:26:40.852Z,1010.65
2017-03-21T07:27:21.559Z,1010.59
2017-03-21T07:28:02.197Z,1010.61
2017-03-21T07:28:42.826Z,1010.6
2017-03-21T07:29:23.494Z,1010.6
2017-03-21T07:30:04.137Z,1010.65
2017-03-21T07:30:44.779Z,1010.7
2017-03-21T07:31:25.404Z,1010.69
2017-03-21T07:32:06.017Z,1010.69
2017-03-21T07:32:46.647Z,1010.67
2017-03-21T07:33:27.278Z,1010.66
2017-03-21T07:34:07.920Z,1010.65
2017-03-21T07:34:48.545Z,1010.66
2017-03-21T07:35:29.182Z,1010.67
2017-03-21T07:36:09.812Z,1010.67
2017-03-21T07:36:50.440Z,1010.66
2017-03-21T07:37:31.061Z,1010.7
2017-03-21T07:38:11.702Z,1010.67
2017-03-21T07:38:52.333Z,1010.67
2017-03-21T07:39:33.025Z,1010.66
2017-03-21T07:40:13.654Z,1010.67
2017-03-21T07:40:54.347Z,1010.71
2017-03-21T07:41:34.972Z,1010.71
2017-03-21T07:42:15.604Z,1010.69
2017-03-21T07:42:56.233Z,1010.73
2017-03-21T07:43:36.865Z,1010.74
2017-03-21T07:44:17.496Z,1010.76
2017-03-21T07:44:58.179Z,1010.79
2017-03-21T07:45:38.808Z,1010.75
2017-03-21T07:46:19.442Z,1010.74
2017-03-21T07:47:00.062Z,1010.76
2017-03-21T07:47:40.689Z,1010.77
2017-03-21T07:48:21.317Z,1010.73
2017-03-21T07:49:01.947Z,1010.77
2017-03-21T07:49:42.586Z,1010.79
2017-03-21T07:50:23.212Z,1010.8
2017-03-21T07:51:03.866Z,1010.82
2017-03-21T07:51:44.497Z,1010.79
2017-03-21T07:52:25.132Z,1010.81
2017-03-21T07:53:05.758Z,1010.81
2017-03-21T07:53:46.392Z,1010.82
2017-03-21T07:54:27.045Z,1010.77
2017-03-21T07:55:07.675Z,1010.74
2017-03-21T07:55:48.373Z,1010.75
2017-03-21T07:56:29.019Z,1010.76
2017-03-21T07:57:09.641Z,1010.78
2017-03-21T07:57:50.299Z,1010.75
2017-03-21T07:58:30.920Z,1010.74
2017-03-21T07:59:11.578Z,1010.72
2017-03-21T07:59:52.737Z,1010.74
2017-03-21T08:00:33.416Z,1010.76
2017-03-21T08:01:14.055Z,1010.74
2017-03-21T08:01:54.681Z,1010.72
2017-03-21T08:02:35.300Z,1010.71
2017-03-21T08:03:15.926Z,1010.75
2017-03-21T08:03:56.567Z,1010.75
2017-03-21T08:04:37.309Z,1010.75
2017-03-21T08:05:17.929Z,1010.72
2017-03-21T08:05:58.565Z,1010.77
2017-03-21T08:06:39.184Z,1010.75
2017-03-21T08:07:19.831Z,1010.75
2017-03-21T08:08:00.538Z,1010.79
2017-03-21T08:08:41.168Z,1010.78
2017-03-21T08:09:21.803Z,1010.8
2017-03-21T08:10:02.436Z,1010.78
2017-03-21T08:10:43.124Z,1010.81
2017-03-21T08:11:23.762Z,1010.83
2017-03-21T08:12:04.392Z,1010.8
2017-03-21T08:12:45.083Z,1010.83
2017-03-21T08:13:25.734Z,1010.84